Terminal Aerodrome Forecast
Issued by NWS Jackson, MS

Home | Current Version | Previous Version | Text Only | Print | Product List | Glossary On
Versions: 1 2 3 4 5 6 7 8 9 10 11 12 13 14 15 16
000
FTUS44 KJAN 052018 AAC
TAFMEI
TAF AMD
KMEI 052018Z 0520/0618 05007KT 6SM RA BR VCTS BKN006 BKN020CB
      OVC110
     FM052300 14007KT 1 1/2SM -TSRA BR OVC003CB
     FM060600 17010KT 2SM BR VCSH OVC003
     FM061600 26012KT 4SM BR OVC007=

USA.gov is the U.S. government's official web portal to all federal, state and local government web resources and services.